sensor_id;sensor_type;location;lat;lon;timestamp;P1;durP1;ratioP1;P2;durP2;ratioP2
2305;SDS011;1161;51.922;8.896;2022-07-23T00:00:24;19.00;;;11.43;;
2305;SDS011;1161;51.922;8.896;2022-07-23T00:02:51;14.33;;;11.07;;
2305;SDS011;1161;51.922;8.896;2022-07-23T00:05:18;17.10;;;11.07;;
2305;SDS011;1161;51.922;8.896;2022-07-23T00:07:46;15.50;;;9.53;;
2305;SDS011;1161;51.922;8.896;2022-07-23T00:10:12;16.33;;;10.30;;
2305;SDS011;1161;51.922;8.896;2022-07-23T00:12:39;12.23;;;9.70;;
2305;SDS011;1161;51.922;8.896;2022-07-23T00:15:07;28.63;;;9.80;;
2305;SDS011;1161;51.922;8.896;2022-07-23T00:17:35;13.13;;;7.50;;
2305;SDS011;1161;51.922;8.896;2022-07-23T00:20:02;25.30;;;9.97;;
2305;SDS011;1161;51.922;8.896;2022-07-23T00:22:31;17.13;;;9.33;;
2305;SDS011;1161;51.922;8.896;2022-07-23T00:24:59;15.90;;;9.47;;
2305;SDS011;1161;51.922;8.896;2022-07-23T00:27:26;10.90;;;8.10;;
2305;SDS011;1161;51.922;8.896;2022-07-23T00:29:52;11.77;;;8.17;;
2305;SDS011;1161;51.922;8.896;2022-07-23T00:32:20;12.97;;;7.53;;
2305;SDS011;1161;51.922;8.896;2022-07-23T00:34:46;17.43;;;9.70;;
2305;SDS011;1161;51.922;8.896;2022-07-23T00:37:13;13.07;;;9.40;;
2305;SDS011;1161;51.922;8.896;2022-07-23T00:39:40;19.10;;;10.53;;
2305;SDS011;1161;51.922;8.896;2022-07-23T00:42:08;13.17;;;9.03;;
2305;SDS011;1161;51.922;8.896;2022-07-23T00:44:34;18.53;;;10.10;;
2305;SDS011;1161;51.922;8.896;2022-07-23T00:47:01;13.80;;;8.73;;
2305;SDS011;1161;51.922;8.896;2022-07-23T00:49:28;15.53;;;8.40;;
2305;SDS011;1161;51.922;8.896;2022-07-23T00:51:56;29.47;;;10.77;;
2305;SDS011;1161;51.922;8.896;2022-07-23T00:54:24;15.23;;;8.47;;
2305;SDS011;1161;51.922;8.896;2022-07-23T00:56:51;13.80;;;8.60;;
2305;SDS011;1161;51.922;8.896;2022-07-23T00:59:19;17.47;;;10.30;;
2305;SDS011;1161;51.922;8.896;2022-07-23T01:01:46;24.03;;;10.00;;
2305;SDS011;1161;51.922;8.896;2022-07-23T01:04:14;25.03;;;11.67;;
2305;SDS011;1161;51.922;8.896;2022-07-23T01:06:41;14.53;;;10.97;;
2305;SDS011;1161;51.922;8.896;2022-07-23T01:09:09;15.43;;;9.97;;
2305;SDS011;1161;51.922;8.896;2022-07-23T01:11:36;15.47;;;10.03;;
2305;SDS011;1161;51.922;8.896;2022-07-23T01:14:10;18.37;;;9.90;;
2305;SDS011;1161;51.922;8.896;2022-07-23T01:16:39;24.40;;;12.37;;
2305;SDS011;1161;51.922;8.896;2022-07-23T01:19:05;21.80;;;10.30;;
2305;SDS011;1161;51.922;8.896;2022-07-23T01:21:34;17.07;;;9.93;;
2305;SDS011;1161;51.922;8.896;2022-07-23T01:24:04;18.07;;;10.90;;
2305;SDS011;1161;51.922;8.896;2022-07-23T01:26:31;23.40;;;11.33;;
2305;SDS011;1161;51.922;8.896;2022-07-23T01:28:58;28.60;;;11.30;;
2305;SDS011;1161;51.922;8.896;2022-07-23T01:31:25;18.93;;;11.50;;
2305;SDS011;1161;51.922;8.896;2022-07-23T01:33:51;17.57;;;10.00;;
2305;SDS011;1161;51.922;8.896;2022-07-23T01:36:18;15.10;;;11.00;;
2305;SDS011;1161;51.922;8.896;2022-07-23T01:38:45;17.43;;;11.97;;
2305;SDS011;1161;51.922;8.896;2022-07-23T01:41:13;23.63;;;10.57;;
2305;SDS011;1161;51.922;8.896;2022-07-23T01:43:40;18.67;;;11.47;;
2305;SDS011;1161;51.922;8.896;2022-07-23T01:46:06;25.23;;;11.67;;
2305;SDS011;1161;51.922;8.896;2022-07-23T01:48:33;21.50;;;12.00;;
2305;SDS011;1161;51.922;8.896;2022-07-23T01:51:00;23.07;;;11.80;;
2305;SDS011;1161;51.922;8.896;2022-07-23T01:53:27;25.30;;;12.13;;
2305;SDS011;1161;51.922;8.896;2022-07-23T01:55:56;20.10;;;11.73;;
2305;SDS011;1161;51.922;8.896;2022-07-23T01:58:24;19.63;;;11.83;;
2305;SDS011;1161;51.922;8.896;2022-07-23T02:00:51;26.30;;;13.23;;
2305;SDS011;1161;51.922;8.896;2022-07-23T02:03:17;21.43;;;13.83;;
2305;SDS011;1161;51.922;8.896;2022-07-23T02:05:44;16.30;;;10.53;;
2305;SDS011;1161;51.922;8.896;2022-07-23T02:08:11;25.00;;;13.73;;
2305;SDS011;1161;51.922;8.896;2022-07-23T02:10:37;28.67;;;12.60;;
2305;SDS011;1161;51.922;8.896;2022-07-23T02:13:04;22.57;;;11.83;;
2305;SDS011;1161;51.922;8.896;2022-07-23T02:15:32;21.37;;;13.07;;
2305;SDS011;1161;51.922;8.896;2022-07-23T02:17:59;24.20;;;13.93;;
2305;SDS011;1161;51.922;8.896;2022-07-23T02:20:26;20.13;;;11.93;;
2305;SDS011;1161;51.922;8.896;2022-07-23T02:22:52;21.40;;;12.40;;
2305;SDS011;1161;51.922;8.896;2022-07-23T02:25:19;29.57;;;15.23;;
2305;SDS011;1161;51.922;8.896;2022-07-23T02:27:46;20.10;;;13.33;;
2305;SDS011;1161;51.922;8.896;2022-07-23T02:30:12;23.57;;;12.80;;
2305;SDS011;1161;51.922;8.896;2022-07-23T02:32:40;36.03;;;13.47;;
2305;SDS011;1161;51.922;8.896;2022-07-23T02:35:08;23.77;;;14.60;;
2305;SDS011;1161;51.922;8.896;2022-07-23T02:37:35;17.50;;;11.83;;
2305;SDS011;1161;51.922;8.896;2022-07-23T02:40:03;22.07;;;12.33;;
2305;SDS011;1161;51.922;8.896;2022-07-23T02:42:31;24.27;;;12.57;;
2305;SDS011;1161;51.922;8.896;2022-07-23T02:44:58;24.07;;;13.53;;
2305;SDS011;1161;51.922;8.896;2022-07-23T02:47:25;20.80;;;14.10;;
2305;SDS011;1161;51.922;8.896;2022-07-23T02:49:53;19.70;;;13.17;;
2305;SDS011;1161;51.922;8.896;2022-07-23T02:52:23;21.67;;;13.63;;
2305;SDS011;1161;51.922;8.896;2022-07-23T02:54:50;19.50;;;10.73;;
2305;SDS011;1161;51.922;8.896;2022-07-23T02:57:17;20.73;;;11.90;;
2305;SDS011;1161;51.922;8.896;2022-07-23T02:59:44;25.97;;;14.40;;
2305;SDS011;1161;51.922;8.896;2022-07-23T03:02:10;20.00;;;13.20;;
2305;SDS011;1161;51.922;8.896;2022-07-23T03:04:37;30.13;;;11.80;;
2305;SDS011;1161;51.922;8.896;2022-07-23T03:07:05;25.97;;;13.50;;
2305;SDS011;1161;51.922;8.896;2022-07-23T03:09:33;21.30;;;13.27;;
2305;SDS011;1161;51.922;8.896;2022-07-23T03:12:00;24.47;;;14.33;;
2305;SDS011;1161;51.922;8.896;2022-07-23T03:14:27;24.90;;;14.40;;
2305;SDS011;1161;51.922;8.896;2022-07-23T03:16:54;34.97;;;13.00;;
2305;SDS011;1161;51.922;8.896;2022-07-23T03:19:21;31.67;;;15.00;;
2305;SDS011;1161;51.922;8.896;2022-07-23T03:21:48;23.50;;;13.70;;
2305;SDS011;1161;51.922;8.896;2022-07-23T03:24:18;32.40;;;13.40;;
2305;SDS011;1161;51.922;8.896;2022-07-23T03:26:47;33.60;;;14.40;;
2305;SDS011;1161;51.922;8.896;2022-07-23T03:29:16;28.80;;;15.57;;
2305;SDS011;1161;51.922;8.896;2022-07-23T03:31:43;28.87;;;13.77;;
2305;SDS011;1161;51.922;8.896;2022-07-23T03:34:11;29.87;;;14.63;;
2305;SDS011;1161;51.922;8.896;2022-07-23T03:36:38;36.27;;;13.73;;
2305;SDS011;1161;51.922;8.896;2022-07-23T03:39:07;21.03;;;12.70;;
2305;SDS011;1161;51.922;8.896;2022-07-23T03:41:36;21.03;;;14.30;;
2305;SDS011;1161;51.922;8.896;2022-07-23T03:44:04;26.90;;;11.47;;
2305;SDS011;1161;51.922;8.896;2022-07-23T03:46:33;25.83;;;14.10;;
2305;SDS011;1161;51.922;8.896;2022-07-23T03:49:00;24.97;;;13.10;;
2305;SDS011;1161;51.922;8.896;2022-07-23T03:51:28;32.63;;;12.90;;
2305;SDS011;1161;51.922;8.896;2022-07-23T03:53:55;21.40;;;12.40;;
2305;SDS011;1161;51.922;8.896;2022-07-23T03:56:24;30.03;;;13.00;;
2305;SDS011;1161;51.922;8.896;2022-07-23T03:58:53;25.77;;;12.67;;
2305;SDS011;1161;51.922;8.896;2022-07-23T04:01:23;26.63;;;10.70;;
2305;SDS011;1161;51.922;8.896;2022-07-23T04:03:50;22.67;;;11.27;;
2305;SDS011;1161;51.922;8.896;2022-07-23T04:06:20;39.83;;;14.57;;
2305;SDS011;1161;51.922;8.896;2022-07-23T04:08:47;18.87;;;10.83;;
2305;SDS011;1161;51.922;8.896;2022-07-23T04:11:16;21.20;;;10.50;;
2305;SDS011;1161;51.922;8.896;2022-07-23T04:13:45;20.63;;;13.40;;
2305;SDS011;1161;51.922;8.896;2022-07-23T04:16:14;18.73;;;11.20;;
2305;SDS011;1161;51.922;8.896;2022-07-23T04:18:42;19.73;;;11.00;;
2305;SDS011;1161;51.922;8.896;2022-07-23T04:21:09;19.53;;;10.67;;
2305;SDS011;1161;51.922;8.896;2022-07-23T04:23:37;31.93;;;10.80;;
2305;SDS011;1161;51.922;8.896;2022-07-23T04:26:05;24.40;;;11.57;;
2305;SDS011;1161;51.922;8.896;2022-07-23T04:28:32;17.80;;;12.20;;
2305;SDS011;1161;51.922;8.896;2022-07-23T04:31:00;21.77;;;11.90;;
2305;SDS011;1161;51.922;8.896;2022-07-23T04:33:29;21.67;;;11.00;;
2305;SDS011;1161;51.922;8.896;2022-07-23T04:35:58;23.13;;;12.10;;
2305;SDS011;1161;51.922;8.896;2022-07-23T04:38:27;13.97;;;9.57;;
2305;SDS011;1161;51.922;8.896;2022-07-23T04:40:56;17.03;;;9.63;;
2305;SDS011;1161;51.922;8.896;2022-07-23T04:43:23;19.23;;;12.07;;
2305;SDS011;1161;51.922;8.896;2022-07-23T04:45:51;26.30;;;11.23;;
2305;SDS011;1161;51.922;8.896;2022-07-23T04:48:18;25.97;;;15.33;;
2305;SDS011;1161;51.922;8.896;2022-07-23T04:50:47;25.10;;;14.37;;
2305;SDS011;1161;51.922;8.896;2022-07-23T04:53:14;29.63;;;15.43;;
2305;SDS011;1161;51.922;8.896;2022-07-23T04:55:41;35.70;;;16.53;;
2305;SDS011;1161;51.922;8.896;2022-07-23T04:58:08;33.07;;;17.93;;
2305;SDS011;1161;51.922;8.896;2022-07-23T05:00:38;29.77;;;17.67;;
2305;SDS011;1161;51.922;8.896;2022-07-23T05:03:05;27.70;;;18.00;;
2305;SDS011;1161;51.922;8.896;2022-07-23T05:05:32;40.43;;;20.37;;
2305;SDS011;1161;51.922;8.896;2022-07-23T05:08:05;36.37;;;19.20;;
2305;SDS011;1161;51.922;8.896;2022-07-23T05:10:35;34.93;;;18.80;;
2305;SDS011;1161;51.922;8.896;2022-07-23T05:13:02;45.23;;;20.40;;
2305;SDS011;1161;51.922;8.896;2022-07-23T05:15:29;40.00;;;22.77;;
2305;SDS011;1161;51.922;8.896;2022-07-23T05:17:57;41.87;;;19.97;;
2305;SDS011;1161;51.922;8.896;2022-07-23T05:20:24;46.73;;;21.97;;
2305;SDS011;1161;51.922;8.896;2022-07-23T05:22:51;47.47;;;22.30;;
2305;SDS011;1161;51.922;8.896;2022-07-23T05:25:20;43.07;;;22.90;;
2305;SDS011;1161;51.922;8.896;2022-07-23T05:27:47;45.87;;;23.00;;
2305;SDS011;1161;51.922;8.896;2022-07-23T05:30:14;44.80;;;23.57;;
2305;SDS011;1161;51.922;8.896;2022-07-23T05:32:41;42.03;;;21.80;;
2305;SDS011;1161;51.922;8.896;2022-07-23T05:35:09;40.93;;;21.90;;
2305;SDS011;1161;51.922;8.896;2022-07-23T05:37:37;44.23;;;21.87;;
2305;SDS011;1161;51.922;8.896;2022-07-23T05:40:07;40.77;;;21.00;;
2305;SDS011;1161;51.922;8.896;2022-07-23T05:42:37;43.00;;;23.50;;
2305;SDS011;1161;51.922;8.896;2022-07-23T05:45:05;40.10;;;21.30;;
2305;SDS011;1161;51.922;8.896;2022-07-23T05:47:38;44.67;;;25.30;;
2305;SDS011;1161;51.922;8.896;2022-07-23T05:50:07;44.93;;;23.50;;
2305;SDS011;1161;51.922;8.896;2022-07-23T05:52:35;51.40;;;25.20;;
2305;SDS011;1161;51.922;8.896;2022-07-23T05:55:06;48.90;;;25.50;;
2305;SDS011;1161;51.922;8.896;2022-07-23T05:57:39;51.97;;;24.57;;
2305;SDS011;1161;51.922;8.896;2022-07-23T06:00:07;34.80;;;23.27;;
2305;SDS011;1161;51.922;8.896;2022-07-23T06:02:35;58.43;;;23.77;;
2305;SDS011;1161;51.922;8.896;2022-07-23T06:05:07;54.20;;;23.87;;
2305;SDS011;1161;51.922;8.896;2022-07-23T06:07:36;50.57;;;24.67;;
2305;SDS011;1161;51.922;8.896;2022-07-23T06:10:04;49.73;;;24.40;;
2305;SDS011;1161;51.922;8.896;2022-07-23T06:12:32;55.70;;;25.40;;
2305;SDS011;1161;51.922;8.896;2022-07-23T06:15:00;53.97;;;26.10;;
2305;SDS011;1161;51.922;8.896;2022-07-23T06:17:27;46.00;;;23.90;;
2305;SDS011;1161;51.922;8.896;2022-07-23T06:19:54;55.63;;;28.37;;
2305;SDS011;1161;51.922;8.896;2022-07-23T06:22:21;49.53;;;26.07;;
2305;SDS011;1161;51.922;8.896;2022-07-23T06:24:48;80.37;;;26.83;;
2305;SDS011;1161;51.922;8.896;2022-07-23T06:27:15;39.83;;;23.70;;
2305;SDS011;1161;51.922;8.896;2022-07-23T06:29:41;49.90;;;24.37;;
2305;SDS011;1161;51.922;8.896;2022-07-23T06:32:09;62.53;;;24.27;;
2305;SDS011;1161;51.922;8.896;2022-07-23T06:34:36;46.10;;;23.80;;
2305;SDS011;1161;51.922;8.896;2022-07-23T06:37:03;42.07;;;21.33;;
2305;SDS011;1161;51.922;8.896;2022-07-23T06:39:30;38.80;;;21.20;;
2305;SDS011;1161;51.922;8.896;2022-07-23T06:41:57;40.53;;;22.37;;
2305;SDS011;1161;51.922;8.896;2022-07-23T06:44:23;36.13;;;21.27;;
2305;SDS011;1161;51.922;8.896;2022-07-23T06:46:50;30.37;;;20.13;;
2305;SDS011;1161;51.922;8.896;2022-07-23T06:49:18;36.47;;;20.60;;
2305;SDS011;1161;51.922;8.896;2022-07-23T06:51:45;38.93;;;19.70;;
2305;SDS011;1161;51.922;8.896;2022-07-23T06:54:11;34.03;;;19.13;;
2305;SDS011;1161;51.922;8.896;2022-07-23T06:56:38;32.93;;;19.27;;
2305;SDS011;1161;51.922;8.896;2022-07-23T06:59:06;24.93;;;14.47;;
2305;SDS011;1161;51.922;8.896;2022-07-23T07:01:33;31.07;;;15.03;;
2305;SDS011;1161;51.922;8.896;2022-07-23T07:04:00;20.33;;;11.60;;
2305;SDS011;1161;51.922;8.896;2022-07-23T07:06:28;20.50;;;11.70;;
2305;SDS011;1161;51.922;8.896;2022-07-23T07:08:55;14.90;;;9.80;;
2305;SDS011;1161;51.922;8.896;2022-07-23T07:11:22;17.47;;;10.00;;
2305;SDS011;1161;51.922;8.896;2022-07-23T07:13:49;29.00;;;11.67;;
2305;SDS011;1161;51.922;8.896;2022-07-23T07:16:15;21.20;;;9.73;;
2305;SDS011;1161;51.922;8.896;2022-07-23T07:18:42;21.53;;;9.60;;
2305;SDS011;1161;51.922;8.896;2022-07-23T07:21:08;16.93;;;9.10;;
2305;SDS011;1161;51.922;8.896;2022-07-23T07:23:36;15.90;;;10.17;;
2305;SDS011;1161;51.922;8.896;2022-07-23T07:26:03;12.87;;;9.27;;
2305;SDS011;1161;51.922;8.896;2022-07-23T07:28:30;16.60;;;9.50;;
2305;SDS011;1161;51.922;8.896;2022-07-23T07:30:57;13.30;;;9.10;;
2305;SDS011;1161;51.922;8.896;2022-07-23T07:33:23;21.43;;;10.57;;
2305;SDS011;1161;51.922;8.896;2022-07-23T07:35:50;14.63;;;9.73;;
2305;SDS011;1161;51.922;8.896;2022-07-23T07:38:17;13.03;;;9.53;;
2305;SDS011;1161;51.922;8.896;2022-07-23T07:40:45;11.30;;;8.80;;
2305;SDS011;1161;51.922;8.896;2022-07-23T07:43:12;14.63;;;8.53;;
2305;SDS011;1161;51.922;8.896;2022-07-23T07:45:38;18.93;;;10.73;;
2305;SDS011;1161;51.922;8.896;2022-07-23T07:48:05;14.10;;;8.30;;
2305;SDS011;1161;51.922;8.896;2022-07-23T07:50:32;15.60;;;9.70;;
2305;SDS011;1161;51.922;8.896;2022-07-23T07:52:58;15.30;;;9.60;;
2305;SDS011;1161;51.922;8.896;2022-07-23T07:55:25;17.13;;;9.50;;
2305;SDS011;1161;51.922;8.896;2022-07-23T07:57:53;14.23;;;9.60;;
2305;SDS011;1161;51.922;8.896;2022-07-23T08:00:20;14.63;;;9.20;;
2305;SDS011;1161;51.922;8.896;2022-07-23T08:02:47;18.73;;;8.60;;
2305;SDS011;1161;51.922;8.896;2022-07-23T08:05:18;16.40;;;8.87;;
2305;SDS011;1161;51.922;8.896;2022-07-23T08:07:45;13.33;;;8.40;;
2305;SDS011;1161;51.922;8.896;2022-07-23T08:10:11;18.63;;;8.47;;
2305;SDS011;1161;51.922;8.896;2022-07-23T08:12:39;14.17;;;6.83;;
2305;SDS011;1161;51.922;8.896;2022-07-23T08:15:08;13.43;;;7.07;;
2305;SDS011;1161;51.922;8.896;2022-07-23T08:17:36;15.97;;;8.27;;
2305;SDS011;1161;51.922;8.896;2022-07-23T08:20:04;15.27;;;8.73;;
2305;SDS011;1161;51.922;8.896;2022-07-23T08:22:41;9.77;;;7.87;;
2305;SDS011;1161;51.922;8.896;2022-07-23T08:25:09;13.57;;;8.40;;
2305;SDS011;1161;51.922;8.896;2022-07-23T08:27:36;17.63;;;8.90;;
2305;SDS011;1161;51.922;8.896;2022-07-23T08:30:03;30.73;;;9.00;;
2305;SDS011;1161;51.922;8.896;2022-07-23T08:32:32;11.40;;;6.90;;
2305;SDS011;1161;51.922;8.896;2022-07-23T08:34:59;13.00;;;7.37;;
2305;SDS011;1161;51.922;8.896;2022-07-23T08:37:25;13.40;;;8.23;;
2305;SDS011;1161;51.922;8.896;2022-07-23T08:39:52;21.00;;;8.00;;
2305;SDS011;1161;51.922;8.896;2022-07-23T08:42:21;14.50;;;8.20;;
2305;SDS011;1161;51.922;8.896;2022-07-23T08:44:47;16.73;;;7.43;;
2305;SDS011;1161;51.922;8.896;2022-07-23T08:47:14;12.63;;;8.07;;
2305;SDS011;1161;51.922;8.896;2022-07-23T08:49:43;16.63;;;7.47;;
2305;SDS011;1161;51.922;8.896;2022-07-23T08:52:10;9.40;;;6.40;;
2305;SDS011;1161;51.922;8.896;2022-07-23T08:54:37;13.20;;;8.43;;
2305;SDS011;1161;51.922;8.896;2022-07-23T08:57:04;8.93;;;6.23;;
2305;SDS011;1161;51.922;8.896;2022-07-23T08:59:30;12.33;;;8.67;;
2305;SDS011;1161;51.922;8.896;2022-07-23T09:01:57;14.90;;;9.10;;
2305;SDS011;1161;51.922;8.896;2022-07-23T09:04:25;18.60;;;6.20;;
2305;SDS011;1161;51.922;8.896;2022-07-23T09:06:54;14.47;;;7.53;;
2305;SDS011;1161;51.922;8.896;2022-07-23T09:09:20;9.67;;;7.93;;
2305;SDS011;1161;51.922;8.896;2022-07-23T09:11:48;11.40;;;7.13;;
2305;SDS011;1161;51.922;8.896;2022-07-23T09:14:35;9.87;;;7.43;;
2305;SDS011;1161;51.922;8.896;2022-07-23T09:17:07;10.83;;;7.27;;
2305;SDS011;1161;51.922;8.896;2022-07-23T09:19:35;5.90;;;5.30;;
2305;SDS011;1161;51.922;8.896;2022-07-23T09:22:17;11.63;;;7.23;;
2305;SDS011;1161;51.922;8.896;2022-07-23T09:27:45;14.10;;;6.90;;
2305;SDS011;1161;51.922;8.896;2022-07-23T09:30:17;11.13;;;7.70;;
2305;SDS011;1161;51.922;8.896;2022-07-23T09:32:44;10.20;;;7.10;;
2305;SDS011;1161;51.922;8.896;2022-07-23T09:35:43;12.50;;;6.80;;
2305;SDS011;1161;51.922;8.896;2022-07-23T09:38:12;6.03;;;5.43;;
2305;SDS011;1161;51.922;8.896;2022-07-23T09:40:38;9.00;;;6.77;;
2305;SDS011;1161;51.922;8.896;2022-07-23T09:43:05;13.40;;;7.27;;
2305;SDS011;1161;51.922;8.896;2022-07-23T09:45:32;16.33;;;7.40;;
2305;SDS011;1161;51.922;8.896;2022-07-23T09:48:09;8.00;;;5.63;;
2305;SDS011;1161;51.922;8.896;2022-07-23T09:50:36;13.23;;;6.47;;
2305;SDS011;1161;51.922;8.896;2022-07-23T09:53:03;7.50;;;6.20;;
2305;SDS011;1161;51.922;8.896;2022-07-23T09:55:32;7.63;;;6.83;;
2305;SDS011;1161;51.922;8.896;2022-07-23T09:58:02;9.10;;;5.03;;
2305;SDS011;1161;51.922;8.896;2022-07-23T10:00:29;5.87;;;5.10;;
2305;SDS011;1161;51.922;8.896;2022-07-23T10:02:56;9.70;;;5.07;;
2305;SDS011;1161;51.922;8.896;2022-07-23T10:05:23;9.57;;;5.67;;
2305;SDS011;1161;51.922;8.896;2022-07-23T10:07:50;7.03;;;5.70;;
2305;SDS011;1161;51.922;8.896;2022-07-23T10:10:18;6.97;;;5.07;;
2305;SDS011;1161;51.922;8.896;2022-07-23T10:12:46;12.00;;;6.23;;
2305;SDS011;1161;51.922;8.896;2022-07-23T10:15:28;13.40;;;6.43;;
2305;SDS011;1161;51.922;8.896;2022-07-23T10:17:56;10.33;;;5.33;;
2305;SDS011;1161;51.922;8.896;2022-07-23T10:20:22;7.80;;;4.83;;
2305;SDS011;1161;51.922;8.896;2022-07-23T10:22:51;11.90;;;6.50;;
2305;SDS011;1161;51.922;8.896;2022-07-23T10:25:26;7.23;;;5.60;;
2305;SDS011;1161;51.922;8.896;2022-07-23T10:28:07;14.53;;;5.03;;
2305;SDS011;1161;51.922;8.896;2022-07-23T10:30:43;8.30;;;5.53;;
2305;SDS011;1161;51.922;8.896;2022-07-23T10:33:15;7.00;;;6.27;;
2305;SDS011;1161;51.922;8.896;2022-07-23T10:35:48;7.77;;;4.90;;
2305;SDS011;1161;51.922;8.896;2022-07-23T10:38:19;8.00;;;4.87;;
2305;SDS011;1161;51.922;8.896;2022-07-23T10:40:53;7.23;;;6.37;;
2305;SDS011;1161;51.922;8.896;2022-07-23T10:43:22;8.40;;;6.13;;
2305;SDS011;1161;51.922;8.896;2022-07-23T10:45:49;5.07;;;4.43;;
2305;SDS011;1161;51.922;8.896;2022-07-23T10:48:17;4.20;;;3.90;;
2305;SDS011;1161;51.922;8.896;2022-07-23T10:53:53;9.27;;;5.27;;
2305;SDS011;1161;51.922;8.896;2022-07-23T10:59:16;5.77;;;5.10;;
2305;SDS011;1161;51.922;8.896;2022-07-23T11:01:43;7.63;;;4.80;;
2305;SDS011;1161;51.922;8.896;2022-07-23T11:04:10;4.43;;;4.03;;
2305;SDS011;1161;51.922;8.896;2022-07-23T11:09:41;6.70;;;5.07;;
2305;SDS011;1161;51.922;8.896;2022-07-23T11:15:04;3.13;;;2.93;;
2305;SDS011;1161;51.922;8.896;2022-07-23T11:17:33;4.90;;;3.67;;
2305;SDS011;1161;51.922;8.896;2022-07-23T11:20:21;5.40;;;3.67;;
2305;SDS011;1161;51.922;8.896;2022-07-23T11:22:49;5.10;;;4.13;;
2305;SDS011;1161;51.922;8.896;2022-07-23T11:25:28;8.10;;;3.90;;
2305;SDS011;1161;51.922;8.896;2022-07-23T11:28:10;4.43;;;4.03;;
2305;SDS011;1161;51.922;8.896;2022-07-23T11:30:40;5.57;;;4.20;;
2305;SDS011;1161;51.922;8.896;2022-07-23T11:33:17;5.33;;;3.80;;
2305;SDS011;1161;51.922;8.896;2022-07-23T11:35:47;3.50;;;3.20;;
2305;SDS011;1161;51.922;8.896;2022-07-23T11:38:16;9.10;;;4.00;;
2305;SDS011;1161;51.922;8.896;2022-07-23T11:40:44;3.47;;;3.10;;
2305;SDS011;1161;51.922;8.896;2022-07-23T11:43:12;12.90;;;4.23;;
2305;SDS011;1161;51.922;8.896;2022-07-23T11:45:41;5.23;;;3.67;;
2305;SDS011;1161;51.922;8.896;2022-07-23T11:48:09;6.50;;;2.90;;
2305;SDS011;1161;51.922;8.896;2022-07-23T11:50:42;3.03;;;2.80;;
2305;SDS011;1161;51.922;8.896;2022-07-23T11:53:09;3.90;;;3.47;;
2305;SDS011;1161;51.922;8.896;2022-07-23T11:55:36;8.07;;;3.60;;
2305;SDS011;1161;51.922;8.896;2022-07-23T11:58:03;8.93;;;4.53;;
2305;SDS011;1161;51.922;8.896;2022-07-23T12:00:30;3.87;;;3.57;;
2305;SDS011;1161;51.922;8.896;2022-07-23T12:02:59;4.20;;;3.40;;
2305;SDS011;1161;51.922;8.896;2022-07-23T12:05:27;4.20;;;3.03;;
2305;SDS011;1161;51.922;8.896;2022-07-23T12:07:56;4.07;;;3.70;;
2305;SDS011;1161;51.922;8.896;2022-07-23T12:10:24;9.07;;;3.10;;
2305;SDS011;1161;51.922;8.896;2022-07-23T12:12:52;9.33;;;4.00;;
2305;SDS011;1161;51.922;8.896;2022-07-23T12:15:21;8.00;;;3.80;;
2305;SDS011;1161;51.922;8.896;2022-07-23T12:17:49;7.17;;;3.97;;
2305;SDS011;1161;51.922;8.896;2022-07-23T12:20:19;6.47;;;3.53;;
2305;SDS011;1161;51.922;8.896;2022-07-23T12:22:48;4.73;;;3.60;;
2305;SDS011;1161;51.922;8.896;2022-07-23T12:25:17;3.90;;;3.50;;
2305;SDS011;1161;51.922;8.896;2022-07-23T12:27:44;5.17;;;3.10;;
2305;SDS011;1161;51.922;8.896;2022-07-23T12:30:15;2.73;;;2.53;;
2305;SDS011;1161;51.922;8.896;2022-07-23T12:32:49;2.90;;;2.70;;
2305;SDS011;1161;51.922;8.896;2022-07-23T12:35:18;3.43;;;2.70;;
2305;SDS011;1161;51.922;8.896;2022-07-23T12:37:46;4.43;;;3.13;;
2305;SDS011;1161;51.922;8.896;2022-07-23T12:40:18;7.83;;;4.97;;
2305;SDS011;1161;51.922;8.896;2022-07-23T12:42:47;8.80;;;3.30;;
2305;SDS011;1161;51.922;8.896;2022-07-23T12:45:14;4.63;;;3.17;;
2305;SDS011;1161;51.922;8.896;2022-07-23T12:47:50;3.63;;;2.63;;
2305;SDS011;1161;51.922;8.896;2022-07-23T12:50:31;3.83;;;3.37;;
2305;SDS011;1161;51.922;8.896;2022-07-23T12:53:03;3.23;;;3.03;;
2305;SDS011;1161;51.922;8.896;2022-07-23T12:55:34;4.30;;;3.13;;
2305;SDS011;1161;51.922;8.896;2022-07-23T12:58:05;5.53;;;3.17;;
2305;SDS011;1161;51.922;8.896;2022-07-23T13:00:48;5.40;;;3.27;;
2305;SDS011;1161;51.922;8.896;2022-07-23T13:03:37;5.43;;;3.43;;
2305;SDS011;1161;51.922;8.896;2022-07-23T13:06:07;3.43;;;3.23;;
2305;SDS011;1161;51.922;8.896;2022-07-23T13:08:35;5.23;;;3.47;;
2305;SDS011;1161;51.922;8.896;2022-07-23T13:11:03;4.33;;;2.70;;
2305;SDS011;1161;51.922;8.896;2022-07-23T13:13:31;3.50;;;3.20;;
2305;SDS011;1161;51.922;8.896;2022-07-23T13:16:00;3.80;;;2.77;;
2305;SDS011;1161;51.922;8.896;2022-07-23T13:18:28;7.80;;;3.60;;
2305;SDS011;1161;51.922;8.896;2022-07-23T13:20:55;2.63;;;2.43;;
2305;SDS011;1161;51.922;8.896;2022-07-23T13:23:23;2.60;;;2.30;;
2305;SDS011;1161;51.922;8.896;2022-07-23T13:25:50;2.70;;;2.60;;
2305;SDS011;1161;51.922;8.896;2022-07-23T13:28:17;7.10;;;2.80;;
2305;SDS011;1161;51.922;8.896;2022-07-23T13:30:45;3.53;;;2.67;;
2305;SDS011;1161;51.922;8.896;2022-07-23T13:33:14;4.27;;;2.50;;
2305;SDS011;1161;51.922;8.896;2022-07-23T13:35:41;8.23;;;3.40;;
2305;SDS011;1161;51.922;8.896;2022-07-23T13:38:08;3.23;;;2.30;;
2305;SDS011;1161;51.922;8.896;2022-07-23T13:40:37;7.03;;;3.00;;
2305;SDS011;1161;51.922;8.896;2022-07-23T13:43:05;4.40;;;3.17;;
2305;SDS011;1161;51.922;8.896;2022-07-23T13:45:32;2.80;;;2.60;;
2305;SDS011;1161;51.922;8.896;2022-07-23T13:48:00;2.47;;;2.30;;
2305;SDS011;1161;51.922;8.896;2022-07-23T13:50:27;3.50;;;2.30;;
2305;SDS011;1161;51.922;8.896;2022-07-23T13:52:54;4.53;;;2.10;;
2305;SDS011;1161;51.922;8.896;2022-07-23T13:55:21;3.00;;;2.10;;
2305;SDS011;1161;51.922;8.896;2022-07-23T13:57:49;4.33;;;2.50;;
2305;SDS011;1161;51.922;8.896;2022-07-23T14:00:16;5.33;;;2.37;;
2305;SDS011;1161;51.922;8.896;2022-07-23T14:02:43;2.13;;;2.00;;
2305;SDS011;1161;51.922;8.896;2022-07-23T14:05:10;2.50;;;2.40;;
2305;SDS011;1161;51.922;8.896;2022-07-23T14:07:37;7.73;;;2.47;;
2305;SDS011;1161;51.922;8.896;2022-07-23T14:10:05;2.10;;;2.00;;
2305;SDS011;1161;51.922;8.896;2022-07-23T14:12:32;2.63;;;2.43;;
2305;SDS011;1161;51.922;8.896;2022-07-23T14:15:00;1.93;;;1.83;;
2305;SDS011;1161;51.922;8.896;2022-07-23T14:17:27;3.27;;;2.67;;
2305;SDS011;1161;51.922;8.896;2022-07-23T14:19:54;7.10;;;2.73;;
2305;SDS011;1161;51.922;8.896;2022-07-23T14:22:21;2.90;;;2.00;;
2305;SDS011;1161;51.922;8.896;2022-07-23T14:24:47;2.00;;;1.90;;
2305;SDS011;1161;51.922;8.896;2022-07-23T14:27:14;3.10;;;2.53;;
2305;SDS011;1161;51.922;8.896;2022-07-23T14:29:40;2.20;;;2.00;;
2305;SDS011;1161;51.922;8.896;2022-07-23T14:32:08;7.67;;;2.63;;
2305;SDS011;1161;51.922;8.896;2022-07-23T14:34:35;2.53;;;1.73;;
2305;SDS011;1161;51.922;8.896;2022-07-23T14:37:02;2.43;;;2.23;;
2305;SDS011;1161;51.922;8.896;2022-07-23T14:39:29;2.30;;;1.73;;
2305;SDS011;1161;51.922;8.896;2022-07-23T14:41:56;2.50;;;1.80;;
2305;SDS011;1161;51.922;8.896;2022-07-23T14:44:22;2.07;;;1.97;;
2305;SDS011;1161;51.922;8.896;2022-07-23T14:46:49;7.83;;;3.23;;
2305;SDS011;1161;51.922;8.896;2022-07-23T14:49:17;2.30;;;2.10;;
2305;SDS011;1161;51.922;8.896;2022-07-23T14:51:44;2.10;;;1.90;;
2305;SDS011;1161;51.922;8.896;2022-07-23T14:54:11;2.30;;;1.90;;
2305;SDS011;1161;51.922;8.896;2022-07-23T14:56:39;1.87;;;1.70;;
2305;SDS011;1161;51.922;8.896;2022-07-23T14:59:05;2.37;;;2.27;;
2305;SDS011;1161;51.922;8.896;2022-07-23T15:01:32;2.97;;;1.70;;
2305;SDS011;1161;51.922;8.896;2022-07-23T15:03:59;2.17;;;2.07;;
2305;SDS011;1161;51.922;8.896;2022-07-23T15:06:27;2.77;;;2.57;;
2305;SDS011;1161;51.922;8.896;2022-07-23T15:08:55;7.80;;;2.27;;
2305;SDS011;1161;51.922;8.896;2022-07-23T15:11:21;2.27;;;2.07;;
2305;SDS011;1161;51.922;8.896;2022-07-23T15:13:49;5.43;;;2.10;;
2305;SDS011;1161;51.922;8.896;2022-07-23T15:16:16;4.10;;;2.40;;
2305;SDS011;1161;51.922;8.896;2022-07-23T15:18:42;2.27;;;2.00;;
2305;SDS011;1161;51.922;8.896;2022-07-23T15:21:09;2.73;;;2.07;;